createdAt,value
2017-11-20T00:00:22.554Z,91.71
2017-11-20T00:01:28.451Z,91.78
2017-11-20T00:02:34.340Z,91.95
2017-11-20T00:03:40.434Z,91.80
2017-11-20T00:04:46.577Z,91.49
2017-11-20T00:05:52.591Z,91.55
2017-11-20T00:07:02.263Z,91.63
2017-11-20T00:08:08.373Z,91.83
2017-11-20T00:09:14.474Z,91.71
2017-11-20T00:10:20.587Z,92.03
2017-11-20T00:11:29.484Z,91.96
2017-11-20T00:12:38.266Z,92.33
2017-11-20T00:13:44.353Z,92.29
2017-11-20T00:14:50.471Z,91.78
2017-11-20T00:15:56.567Z,92.05
2017-11-20T00:17:02.660Z,92.16
2017-11-20T00:18:08.751Z,92.26
2017-11-20T00:19:17.833Z,92.04
2017-11-20T00:20:25.110Z,92.18
2017-11-20T00:21:31.474Z,92.41
2017-11-20T00:22:43.119Z,92.33
2017-11-20T00:23:49.208Z,92.81
2017-11-20T00:24:55.285Z,93.33
2017-11-20T00:26:01.821Z,93.62
2017-11-20T00:27:07.928Z,93.39
2017-11-20T00:28:13.991Z,93.24
2017-11-20T00:29:23.114Z,93.17
2017-11-20T00:30:31.983Z,93.41
2017-11-20T00:31:40.088Z,94.07
2017-11-20T00:32:47.340Z,94.31
2017-11-20T00:33:54.194Z,94.84
2017-11-20T00:35:02.819Z,94.67
2017-11-20T00:36:09.872Z,94.54
2017-11-20T00:37:16.945Z,94.66
2017-11-20T00:38:23.306Z,94.17
2017-11-20T00:39:31.247Z,93.85
2017-11-20T00:40:42.118Z,93.98
2017-11-20T00:41:49.323Z,93.73
2017-11-20T00:42:56.278Z,93.75
2017-11-20T00:44:04.119Z,94.16
2017-11-20T00:45:11.257Z,94.21
2017-11-20T00:46:18.753Z,94.38
2017-11-20T00:47:25.753Z,94.25
2017-11-20T00:48:32.649Z,94.19
2017-11-20T00:49:39.869Z,93.96
2017-11-20T00:50:46.754Z,94.08
2017-11-20T00:51:54.216Z,94.05
2017-11-20T00:53:03.107Z,93.74
2017-11-20T00:54:09.937Z,93.94
2017-11-20T00:55:17.374Z,94.04
2017-11-20T00:56:24.696Z,93.98
2017-11-20T00:57:31.855Z,94.08
2017-11-20T00:58:38.639Z,94.35
2017-11-20T00:59:45.745Z,94.35
2017-11-20T01:00:53.140Z,94.22
2017-11-20T01:02:00.489Z,93.87
2017-11-20T01:03:14.456Z,93.54
2017-11-20T01:04:21.309Z,93.62
2017-11-20T01:05:28.737Z,93.43
2017-11-20T01:06:36.094Z,93.59
2017-11-20T01:07:43.363Z,93.83
2017-11-20T01:08:50.199Z,93.78
2017-11-20T01:09:56.878Z,93.49
2017-11-20T01:11:03.513Z,93.25
2017-11-20T01:12:10.737Z,93.15
2017-11-20T01:13:17.711Z,93.14
2017-11-20T01:14:24.474Z,93.41
2017-11-20T01:15:31.327Z,93.58
2017-11-20T01:16:37.203Z,94.13
2017-11-20T01:17:43.626Z,94.05
2017-11-20T01:18:53.489Z,94.08
2017-11-20T01:19:59.559Z,94.07
2017-11-20T01:21:05.747Z,93.81
2017-11-20T01:22:13.508Z,93.50
2017-11-20T01:23:20.713Z,93.37
2017-11-20T01:24:28.641Z,93.29
2017-11-20T01:25:36.013Z,93.17
2017-11-20T01:26:43.632Z,93.11
2017-11-20T01:27:50.841Z,93.39
2017-11-20T01:28:58.543Z,93.55
2017-11-20T01:30:05.759Z,93.54
2017-11-20T01:31:12.746Z,93.51
2017-11-20T01:32:19.430Z,93.67
2017-11-20T01:33:27.573Z,94.31
2017-11-20T01:34:34.469Z,93.96
2017-11-20T01:35:41.031Z,93.93
2017-11-20T01:36:47.554Z,93.99
2017-11-20T01:37:54.548Z,93.79
2017-11-20T01:39:02.807Z,93.53
2017-11-20T01:40:10.697Z,93.26
2017-11-20T01:41:18.944Z,93.03
2017-11-20T01:42:26.895Z,92.86
2017-11-20T01:43:35.190Z,93.13
2017-11-20T01:44:42.450Z,93.80
2017-11-20T01:45:50.654Z,94.09
2017-11-20T01:46:57.756Z,93.91
2017-11-20T01:48:05.064Z,93.92
2017-11-20T01:49:14.188Z,93.97
2017-11-20T01:50:21.636Z,93.94
2017-11-20T01:51:29.069Z,93.73
2017-11-20T01:52:36.258Z,93.52
2017-11-20T01:53:46.906Z,93.31
2017-11-20T01:54:53.432Z,93.47
2017-11-20T01:56:00.333Z,93.24
2017-11-20T01:57:07.818Z,92.76
2017-11-20T01:58:15.301Z,93.45
2017-11-20T01:59:23.148Z,93.16
2017-11-20T02:00:30.329Z,93.28
2017-11-20T02:01:35.875Z,93.57
2017-11-20T02:02:53.877Z,93.51
2017-11-20T02:04:00.274Z,93.32
2017-11-20T02:05:07.324Z,92.96
2017-11-20T02:06:16.521Z,92.85
2017-11-20T02:07:23.914Z,92.92
2017-11-20T02:08:31.141Z,92.86
2017-11-20T02:09:39.131Z,92.87
2017-11-20T02:10:46.432Z,92.84
2017-11-20T02:11:53.685Z,92.94
2017-11-20T02:13:02.941Z,92.74
2017-11-20T02:14:10.074Z,92.31
2017-11-20T02:15:16.249Z,92.41
2017-11-20T02:16:23.093Z,92.51
2017-11-20T02:17:31.324Z,92.42
2017-11-20T02:18:39.604Z,92.25
2017-11-20T02:19:46.694Z,92.43
2017-11-20T02:20:54.639Z,92.24
2017-11-20T02:22:01.464Z,92.32
2017-11-20T02:23:09.742Z,92.29
2017-11-20T02:24:16.221Z,91.83
2017-11-20T02:25:24.140Z,91.72
2017-11-20T02:26:31.614Z,92.00
2017-11-20T02:27:38.988Z,91.97
2017-11-20T02:28:46.758Z,92.21
2017-11-20T02:29:54.117Z,92.34
2017-11-20T02:31:01.408Z,92.04
2017-11-20T02:32:08.878Z,91.81
2017-11-20T02:33:17.101Z,91.87
2017-11-20T02:34:24.965Z,91.41
2017-11-20T02:35:32.323Z,91.50
2017-11-20T02:36:38.576Z,91.54
2017-11-20T02:37:46.431Z,91.40
2017-11-20T02:38:53.413Z,91.54
2017-11-20T02:40:00.237Z,91.70
2017-11-20T02:41:07.249Z,91.62
2017-11-20T02:42:14.799Z,91.67
2017-11-20T02:43:21.671Z,91.87
2017-11-20T02:44:28.624Z,91.97
2017-11-20T02:45:35.667Z,92.35
2017-11-20T02:46:43.143Z,92.01
2017-11-20T02:47:50.118Z,91.89
2017-11-20T02:48:57.705Z,92.19
2017-11-20T02:50:05.221Z,92.61
2017-11-20T02:51:13.080Z,92.56
2017-11-20T02:52:24.154Z,92.58
2017-11-20T02:53:31.144Z,93.21
2017-11-20T02:54:38.859Z,93.26
2017-11-20T02:55:45.893Z,93.27
2017-11-20T02:56:53.118Z,93.46
2017-11-20T02:58:00.914Z,93.34
2017-11-20T02:59:07.538Z,93.48
2017-11-20T03:00:15.614Z,93.51
2017-11-20T03:01:21.231Z,93.35
2017-11-20T03:02:28.792Z,93.60
2017-11-20T03:03:36.486Z,93.88
2017-11-20T03:04:43.980Z,93.96
2017-11-20T03:05:57.275Z,93.78
2017-11-20T03:07:04.634Z,93.47
2017-11-20T03:08:11.922Z,93.80
2017-11-20T03:09:19.282Z,94.32
2017-11-20T03:10:27.054Z,94.21
2017-11-20T03:11:34.426Z,94.21
2017-11-20T03:12:42.647Z,93.99
2017-11-20T03:13:50.877Z,93.61
2017-11-20T03:14:59.428Z,93.47
2017-11-20T03:16:08.649Z,93.41
2017-11-20T03:17:15.671Z,93.52
2017-11-20T03:18:22.534Z,93.67
2017-11-20T03:19:28.283Z,93.69
2017-11-20T03:20:35.039Z,93.70
2017-11-20T03:21:42.795Z,93.84
2017-11-20T03:22:50.115Z,93.69
2017-11-20T03:23:58.445Z,93.36
2017-11-20T03:25:05.667Z,93.42
2017-11-20T03:26:13.156Z,93.91
2017-11-20T03:27:20.828Z,93.78
2017-11-20T03:28:28.944Z,93.95
2017-11-20T03:29:36.148Z,93.84
2017-11-20T03:30:44.198Z,93.98
2017-11-20T03:31:51.328Z,93.95
2017-11-20T03:32:59.438Z,94.32
2017-11-20T03:34:06.751Z,94.62
2017-11-20T03:35:15.253Z,94.64
2017-11-20T03:36:22.262Z,94.00
2017-11-20T03:37:29.140Z,93.69
2017-11-20T03:38:35.889Z,93.29
2017-11-20T03:39:43.157Z,93.77
2017-11-20T03:40:50.063Z,93.82
2017-11-20T03:41:57.170Z,94.00
2017-11-20T03:43:02.551Z,94.05
2017-11-20T03:44:11.300Z,94.01
2017-11-20T03:45:18.194Z,94.14
2017-11-20T03:46:26.469Z,93.98
2017-11-20T03:47:33.157Z,93.68
2017-11-20T03:48:40.842Z,93.30
2017-11-20T03:49:47.951Z,93.42
2017-11-20T03:50:55.216Z,93.23
2017-11-20T03:52:02.313Z,92.94
2017-11-20T03:53:09.433Z,92.85
2017-11-20T03:54:16.741Z,92.90
2017-11-20T03:55:23.954Z,93.12
2017-11-20T03:56:31.635Z,93.24
2017-11-20T03:57:39.718Z,93.34
2017-11-20T03:58:46.231Z,93.11
2017-11-20T03:59:52.414Z,93.16
2017-11-20T04:00:59.461Z,93.06
2017-11-20T04:02:06.660Z,92.98
2017-11-20T04:03:14.021Z,92.93
2017-11-20T04:04:25.603Z,92.54
2017-11-20T04:05:32.438Z,92.40
2017-11-20T04:06:39.562Z,92.34
2017-11-20T04:07:46.794Z,92.18
2017-11-20T04:08:53.844Z,92.26
2017-11-20T04:10:01.500Z,92.31
2017-11-20T04:11:08.326Z,92.14
2017-11-20T04:12:15.355Z,91.99
2017-11-20T04:13:22.515Z,91.66
2017-11-20T04:14:33.466Z,91.79
2017-11-20T04:15:41.223Z,91.57
2017-11-20T04:16:48.486Z,91.56
2017-11-20T04:17:56.456Z,91.25
2017-11-20T04:19:03.115Z,91.09
2017-11-20T04:20:09.920Z,91.20
2017-11-20T04:21:16.910Z,91.38
2017-11-20T04:22:23.964Z,91.33
2017-11-20T04:23:30.985Z,91.26
2017-11-20T04:24:37.897Z,91.31
2017-11-20T04:25:44.852Z,91.25
2017-11-20T04:26:53.009Z,90.79
2017-11-20T04:28:00.352Z,90.65
2017-11-20T04:29:07.725Z,90.57
2017-11-20T04:30:14.152Z,90.80
2017-11-20T04:31:21.963Z,91.14
2017-11-20T04:32:28.063Z,91.21
2017-11-20T04:33:37.770Z,91.11
2017-11-20T04:34:44.625Z,91.03
2017-11-20T04:35:51.125Z,90.39
2017-11-20T04:36:58.382Z,90.36
2017-11-20T04:38:04.239Z,90.77
2017-11-20T04:39:10.372Z,91.17
2017-11-20T04:40:16.457Z,90.95
2017-11-20T04:41:22.834Z,91.02
2017-11-20T04:42:28.909Z,91.10
2017-11-20T04:43:34.717Z,91.12
2017-11-20T04:44:40.864Z,91.23
2017-11-20T04:45:51.073Z,91.14
2017-11-20T04:46:57.205Z,91.18
2017-11-20T04:48:03.329Z,91.20
2017-11-20T04:49:09.056Z,90.84
2017-11-20T04:50:14.499Z,90.90
2017-11-20T04:51:20.348Z,90.99
2017-11-20T04:52:26.263Z,91.40
2017-11-20T04:53:32.407Z,91.39
2017-11-20T04:54:38.509Z,90.86
2017-11-20T04:55:44.398Z,90.67
2017-11-20T04:56:50.301Z,90.64
2017-11-20T04:57:56.108Z,90.65
2017-11-20T04:59:02.188Z,90.94
2017-11-20T05:00:07.587Z,90.75
2017-11-20T05:01:13.177Z,90.72
2017-11-20T05:02:19.570Z,90.46
2017-11-20T05:03:26.917Z,90.94
2017-11-20T05:04:33.579Z,91.03
2017-11-20T05:05:40.211Z,90.78
2017-11-20T05:06:46.863Z,90.47
2017-11-20T05:07:52.962Z,90.40
2017-11-20T05:08:59.035Z,90.18
2017-11-20T05:10:05.200Z,90.30
2017-11-20T05:11:13.190Z,90.83
2017-11-20T05:12:19.538Z,90.71
2017-11-20T05:13:26.182Z,90.16
2017-11-20T05:14:32.988Z,90.49
2017-11-20T05:15:39.143Z,90.53
2017-11-20T05:16:45.280Z,90.53
2017-11-20T05:17:51.350Z,90.26
2017-11-20T05:18:57.436Z,90.37
2017-11-20T05:20:03.555Z,90.53
2017-11-20T05:21:09.636Z,90.43
2017-11-20T05:22:15.727Z,90.18
2017-11-20T05:23:21.803Z,90.05
2017-11-20T05:24:27.936Z,90.10
2017-11-20T05:25:34.842Z,90.06
2017-11-20T05:26:40.942Z,90.02
2017-11-20T05:27:47.085Z,89.86
2017-11-20T05:28:53.193Z,89.72
2017-11-20T05:29:59.342Z,90.06
2017-11-20T05:31:05.531Z,89.86
2017-11-20T05:32:13.005Z,90.04
2017-11-20T05:33:20.159Z,90.40
2017-11-20T05:34:26.921Z,90.38
2017-11-20T05:35:33.049Z,90.59
2017-11-20T05:36:39.125Z,90.53
2017-11-20T05:37:45.250Z,90.54
2017-11-20T05:38:51.367Z,90.50
2017-11-20T05:39:57.477Z,90.49
2017-11-20T05:41:03.634Z,90.35
2017-11-20T05:42:13.213Z,90.63
2017-11-20T05:43:19.556Z,90.27
2017-11-20T05:44:25.684Z,89.78
2017-11-20T05:45:31.803Z,90.19
2017-11-20T05:46:37.907Z,90.25
2017-11-20T05:47:43.971Z,90.52
2017-11-20T05:48:50.042Z,90.29
2017-11-20T05:49:56.179Z,90.33
2017-11-20T05:51:02.358Z,90.40
2017-11-20T05:52:08.488Z,90.48
2017-11-20T05:53:14.570Z,90.61
2017-11-20T05:54:21.728Z,90.67
2017-11-20T05:55:27.904Z,90.52
2017-11-20T05:56:34.017Z,90.26
2017-11-20T05:57:40.259Z,90.05
2017-11-20T05:58:46.329Z,90.00
2017-11-20T05:59:52.415Z,89.91
2017-11-20T06:00:58.512Z,89.91
2017-11-20T06:02:04.635Z,89.97
2017-11-20T06:03:15.795Z,90.18
2017-11-20T06:04:21.907Z,90.19
2017-11-20T06:05:29.748Z,90.16
2017-11-20T06:06:35.981Z,90.25
2017-11-20T06:07:42.209Z,89.94
2017-11-20T06:08:48.285Z,90.43
2017-11-20T06:09:54.338Z,90.28
2017-11-20T06:11:00.456Z,90.37
2017-11-20T06:12:06.614Z,90.62
2017-11-20T06:13:12.719Z,90.71
2017-11-20T06:14:18.799Z,90.68
2017-11-20T06:15:24.900Z,90.73
2017-11-20T06:16:30.980Z,90.96
2017-11-20T06:17:37.628Z,90.90
2017-11-20T06:18:45.215Z,90.55
2017-11-20T06:19:51.724Z,90.58
2017-11-20T06:20:57.789Z,90.43
2017-11-20T06:22:03.894Z,90.38
2017-11-20T06:23:09.970Z,90.28
2017-11-20T06:24:16.080Z,90.30
2017-11-20T06:25:22.176Z,90.21
2017-11-20T06:26:28.283Z,90.71
2017-11-20T06:27:34.359Z,90.76
2017-11-20T06:28:42.309Z,90.89
2017-11-20T06:29:48.442Z,90.98
2017-11-20T06:30:54.190Z,90.89
2017-11-20T06:32:00.395Z,90.84
2017-11-20T06:33:06.780Z,90.62
2017-11-20T06:34:12.893Z,90.51
2017-11-20T06:35:18.959Z,91.26
2017-11-20T06:36:25.024Z,91.31
2017-11-20T06:37:31.139Z,91.78
2017-11-20T06:38:37.233Z,91.68
2017-11-20T06:39:43.379Z,91.64
2017-11-20T06:40:49.540Z,91.61
2017-11-20T06:41:54.927Z,91.47
2017-11-20T06:43:01.001Z,91.46
2017-11-20T06:44:07.107Z,91.49
2017-11-20T06:45:13.209Z,91.40
2017-11-20T06:46:19.054Z,91.33
2017-11-20T06:47:25.177Z,91.05
2017-11-20T06:48:30.951Z,91.40
2017-11-20T06:49:37.083Z,91.34
2017-11-20T06:50:43.253Z,91.47
2017-11-20T06:51:49.353Z,91.76
2017-11-20T06:52:55.456Z,91.86
2017-11-20T06:54:01.564Z,91.87
2017-11-20T06:55:07.654Z,92.08
2017-11-20T06:56:13.790Z,92.18
2017-11-20T06:57:19.885Z,92.42
2017-11-20T06:58:26.181Z,92.41
2017-11-20T06:59:32.274Z,93.28
2017-11-20T07:00:38.387Z,93.41
2017-11-20T07:01:44.464Z,93.73
2017-11-20T07:02:50.611Z,93.83
2017-11-20T07:03:56.703Z,93.75
2017-11-20T07:05:02.765Z,93.61
2017-11-20T07:06:08.878Z,93.54
2017-11-20T07:07:14.990Z,93.57
2017-11-20T07:08:21.078Z,93.57
2017-11-20T07:09:27.201Z,93.58
2017-11-20T07:10:33.274Z,93.69
2017-11-20T07:11:39.407Z,93.95
2017-11-20T07:12:45.618Z,93.94
2017-11-20T07:13:51.704Z,94.10
2017-11-20T07:14:57.791Z,93.90
2017-11-20T07:16:03.882Z,93.76
2017-11-20T07:17:10.015Z,93.64
2017-11-20T07:18:16.130Z,93.98
2017-11-20T07:19:22.225Z,94.19
2017-11-20T07:20:27.667Z,94.41
2017-11-20T07:21:33.534Z,94.31
2017-11-20T07:22:39.612Z,94.42
2017-11-20T07:23:45.683Z,94.56
2017-11-20T07:24:51.810Z,94.36
2017-11-20T07:26:08.801Z,94.26
2017-11-20T07:27:25.755Z,94.08
2017-11-20T07:28:42.714Z,94.09
2017-11-20T07:29:59.963Z,94.54
2017-11-20T07:31:29.713Z,94.34
2017-11-20T07:32:35.605Z,94.36
2017-11-20T07:33:52.662Z,94.27
2017-11-20T07:34:58.233Z,94.19
2017-11-20T07:36:26.193Z,94.00
2017-11-20T07:38:00.539Z,93.93
2017-11-20T07:39:12.596Z,94.11
2017-11-20T07:40:18.737Z,94.06
2017-11-20T07:41:47.506Z,93.97
2017-11-20T07:43:10.608Z,93.74
2017-11-20T07:44:16.674Z,93.76
2017-11-20T07:45:22.772Z,93.29
2017-11-20T07:46:28.852Z,92.99
2017-11-20T07:47:34.953Z,92.86
2017-11-20T07:48:41.171Z,92.92
2017-11-20T07:49:47.869Z,92.80
2017-11-20T07:50:53.594Z,92.69
2017-11-20T07:51:59.678Z,92.57
2017-11-20T07:53:05.772Z,92.24
2017-11-20T07:54:11.592Z,92.15
2017-11-20T07:55:17.675Z,92.29
2017-11-20T07:56:23.764Z,92.56
2017-11-20T07:57:29.838Z,92.79
2017-11-20T07:58:35.984Z,93.14
2017-11-20T07:59:42.109Z,93.09
2017-11-20T08:00:48.179Z,93.19
2017-11-20T08:01:54.294Z,93.57
2017-11-20T08:03:00.429Z,94.12
2017-11-20T08:04:06.511Z,94.33
2017-11-20T08:05:12.618Z,94.36
2017-11-20T08:06:18.797Z,94.38
2017-11-20T08:07:24.927Z,94.09
2017-11-20T08:08:31.007Z,93.92
2017-11-20T08:09:37.771Z,93.90
2017-11-20T08:10:44.816Z,94.02
2017-11-20T08:11:51.983Z,94.20
2017-11-20T08:12:59.224Z,94.60
2017-11-20T08:14:06.098Z,94.92
2017-11-20T08:15:13.485Z,95.22
2017-11-20T08:16:20.640Z,95.75
2017-11-20T08:17:28.045Z,95.74
2017-11-20T08:18:35.206Z,95.40
2017-11-20T08:19:42.893Z,95.49
2017-11-20T08:20:50.094Z,95.60
2017-11-20T08:21:56.856Z,95.58
2017-11-20T08:23:03.901Z,95.67
2017-11-20T08:24:11.231Z,95.59
2017-11-20T08:25:18.276Z,95.81
2017-11-20T08:26:25.305Z,96.28
2017-11-20T08:27:32.921Z,96.34
2017-11-20T08:28:40.254Z,96.21
2017-11-20T08:29:47.426Z,96.48
2017-11-20T08:30:54.333Z,96.26
2017-11-20T08:32:01.483Z,96.45
2017-11-20T08:33:09.815Z,96.42
2017-11-20T08:34:16.928Z,96.96
2017-11-20T08:35:23.945Z,97.32
2017-11-20T08:36:31.346Z,97.18
2017-11-20T08:37:38.585Z,96.75
2017-11-20T08:38:46.370Z,96.68
2017-11-20T08:39:53.928Z,96.60
2017-11-20T08:41:01.084Z,96.66
2017-11-20T08:42:09.111Z,97.16
2017-11-20T08:43:19.420Z,96.93
2017-11-20T08:44:26.236Z,96.68
2017-11-20T08:45:33.244Z,96.44
2017-11-20T08:46:40.555Z,96.55
2017-11-20T08:47:47.796Z,96.72
2017-11-20T08:48:54.560Z,96.34
2017-11-20T08:50:02.739Z,96.37
2017-11-20T08:51:10.183Z,96.34
2017-11-20T08:52:17.480Z,96.39
2017-11-20T08:53:24.677Z,96.78
2017-11-20T08:54:32.023Z,96.91
2017-11-20T08:55:38.866Z,96.92
2017-11-20T08:56:45.967Z,96.78
2017-11-20T08:57:53.004Z,96.85
2017-11-20T08:59:00.206Z,96.43
2017-11-20T09:00:07.282Z,96.54
2017-11-20T09:01:14.810Z,96.51
2017-11-20T09:02:21.241Z,96.51
2017-11-20T09:03:27.092Z,96.38
2017-11-20T09:04:33.249Z,96.39
2017-11-20T09:05:38.982Z,95.96
2017-11-20T09:06:44.727Z,96.01
2017-11-20T09:07:50.464Z,95.97
2017-11-20T09:08:56.658Z,95.95
2017-11-20T09:10:02.797Z,96.02
2017-11-20T09:11:15.121Z,95.90
2017-11-20T09:12:20.887Z,95.73
2017-11-20T09:13:26.963Z,95.69
2017-11-20T09:14:32.743Z,95.62
2017-11-20T09:15:38.847Z,95.25
2017-11-20T09:16:45.206Z,95.28
2017-11-20T09:17:51.383Z,95.57
2017-11-20T09:18:57.451Z,95.78
2017-11-20T09:20:03.573Z,95.90
2017-11-20T09:21:09.683Z,96.35
2017-11-20T09:22:15.407Z,96.63
2017-11-20T09:23:21.549Z,96.36
2017-11-20T09:24:27.644Z,96.10
2017-11-20T09:25:33.500Z,96.21
2017-11-20T09:26:39.590Z,96.65
2017-11-20T09:27:45.659Z,96.76
2017-11-20T09:28:51.883Z,96.82
2017-11-20T09:29:58.037Z,96.67
2017-11-20T09:31:04.124Z,96.71
2017-11-20T09:32:10.277Z,96.66
2017-11-20T09:33:16.080Z,96.76
2017-11-20T09:34:22.162Z,97.32
2017-11-20T09:35:27.587Z,97.52
2017-11-20T09:36:33.320Z,96.86
2017-11-20T09:37:39.044Z,96.24
2017-11-20T09:38:45.101Z,96.66
2017-11-20T09:39:50.582Z,96.65
2017-11-20T09:40:55.957Z,96.54
2017-11-20T09:42:01.337Z,96.92
2017-11-20T09:43:07.412Z,97.25
2017-11-20T09:44:13.515Z,96.89
2017-11-20T09:45:19.979Z,97.01
2017-11-20T09:46:25.384Z,97.46
2017-11-20T09:47:30.914Z,96.97
2017-11-20T09:48:36.373Z,97.18
2017-11-20T09:49:41.735Z,96.98
2017-11-20T09:50:47.126Z,96.72
2017-11-20T09:51:52.500Z,96.74
2017-11-20T09:52:57.921Z,96.97
2017-11-20T09:54:03.328Z,97.08
2017-11-20T09:55:08.523Z,96.75
2017-11-20T09:56:13.916Z,96.69
2017-11-20T09:57:19.301Z,96.95
2017-11-20T09:58:24.712Z,97.45
2017-11-20T09:59:30.220Z,97.75
2017-11-20T10:00:35.661Z,97.76
2017-11-20T10:01:41.192Z,97.61
2017-11-20T10:02:46.628Z,96.95
2017-11-20T10:03:52.084Z,97.19
2017-11-20T10:04:57.503Z,97.81
2017-11-20T10:06:03.303Z,97.80
2017-11-20T10:07:08.763Z,97.79
2017-11-20T10:08:14.184Z,97.60
2017-11-20T10:09:19.580Z,97.76
2017-11-20T10:10:24.947Z,97.84
2017-11-20T10:11:30.397Z,97.99
2017-11-20T10:12:35.833Z,98.16
2017-11-20T10:13:41.241Z,98.60
2017-11-20T10:14:46.953Z,98.46
2017-11-20T10:15:52.369Z,98.89
2017-11-20T10:16:57.799Z,98.94
2017-11-20T10:18:03.238Z,98.83
2017-11-20T10:19:08.654Z,98.70
2017-11-20T10:20:14.077Z,98.58
2017-11-20T10:21:19.295Z,98.20
2017-11-20T10:22:24.751Z,98.10
2017-11-20T10:23:29.972Z,98.36
2017-11-20T10:24:35.382Z,98.48
2017-11-20T10:25:40.843Z,98.61
2017-11-20T10:26:46.231Z,98.61
2017-11-20T10:27:51.690Z,98.57
2017-11-20T10:28:57.149Z,98.74
2017-11-20T10:30:02.970Z,98.52
2017-11-20T10:31:08.416Z,98.61
2017-11-20T10:32:14.187Z,98.41
2017-11-20T10:33:19.573Z,98.14
2017-11-20T10:34:24.954Z,98.11
2017-11-20T10:35:30.385Z,97.90
2017-11-20T10:36:35.805Z,97.74
2017-11-20T10:37:41.196Z,97.59
2017-11-20T10:38:46.606Z,97.35
2017-11-20T10:39:52.385Z,97.10
2017-11-20T10:40:57.875Z,96.46
2017-11-20T10:42:03.370Z,96.40
2017-11-20T10:43:08.757Z,96.41
2017-11-20T10:44:14.510Z,96.59
2017-11-20T10:45:20.381Z,96.37
2017-11-20T10:46:31.830Z,96.13
2017-11-20T10:47:37.308Z,95.69
2017-11-20T10:48:43.059Z,95.64
2017-11-20T10:49:48.426Z,95.56
2017-11-20T10:50:53.815Z,95.68
2017-11-20T10:51:59.226Z,95.67
2017-11-20T10:53:05.317Z,95.63
2017-11-20T10:54:10.803Z,95.44
2017-11-20T10:55:16.230Z,95.02
2017-11-20T10:56:21.768Z,94.87
2017-11-20T10:57:27.976Z,95.28
2017-11-20T10:58:33.636Z,95.46
2017-11-20T10:59:38.806Z,95.25
2017-11-20T11:00:44.225Z,95.03
2017-11-20T11:01:49.732Z,95.20
2017-11-20T11:02:55.182Z,95.14
2017-11-20T11:04:01.364Z,94.70
2017-11-20T11:05:07.124Z,94.92
2017-11-20T11:06:13.029Z,94.74
2017-11-20T11:07:18.818Z,94.60
2017-11-20T11:08:24.008Z,94.61
2017-11-20T11:09:29.396Z,94.46
2017-11-20T11:10:34.782Z,94.32
2017-11-20T11:11:40.529Z,94.08
2017-11-20T11:12:45.928Z,93.84
2017-11-20T11:13:51.651Z,93.52
2017-11-20T11:14:57.037Z,92.93
2017-11-20T11:16:02.256Z,91.68
2017-11-20T11:17:07.830Z,92.30
2017-11-20T11:18:13.060Z,92.49
2017-11-20T11:19:18.241Z,92.58
2017-11-20T11:20:23.634Z,92.96
2017-11-20T11:21:29.024Z,92.45
2017-11-20T11:22:34.218Z,92.31
2017-11-20T11:23:39.983Z,91.98
2017-11-20T11:24:45.371Z,92.22
2017-11-20T11:25:51.094Z,91.99
2017-11-20T11:26:56.515Z,92.11
2017-11-20T11:28:01.901Z,91.74
2017-11-20T11:29:07.608Z,91.90
2017-11-20T11:30:12.995Z,91.89
2017-11-20T11:31:18.410Z,91.65
2017-11-20T11:32:23.788Z,91.65
2017-11-20T11:33:29.348Z,91.43
2017-11-20T11:34:34.921Z,91.26
2017-11-20T11:35:40.435Z,90.87
2017-11-20T11:36:45.848Z,90.82
2017-11-20T11:37:51.244Z,90.79
2017-11-20T11:38:57.046Z,90.32
2017-11-20T11:40:02.496Z,90.29
2017-11-20T11:41:07.973Z,90.05
2017-11-20T11:42:13.390Z,90.17
2017-11-20T11:43:18.581Z,90.31
2017-11-20T11:44:24.040Z,89.70
2017-11-20T11:45:29.410Z,89.97
2017-11-20T11:46:34.849Z,89.76
2017-11-20T11:47:40.273Z,90.01
2017-11-20T11:48:45.949Z,90.19
2017-11-20T11:49:51.924Z,89.83
2017-11-20T11:50:57.321Z,89.73
2017-11-20T11:52:03.075Z,89.40
2017-11-20T11:53:08.517Z,89.14
2017-11-20T11:54:14.252Z,89.33
2017-11-20T11:55:19.488Z,89.26
2017-11-20T11:56:24.914Z,88.94
2017-11-20T11:57:30.332Z,88.87
2017-11-20T11:58:35.895Z,88.94
2017-11-20T11:59:41.283Z,89.32
2017-11-20T12:00:46.720Z,89.86
2017-11-20T12:01:52.623Z,89.71
2017-11-20T12:02:58.032Z,89.96
2017-11-20T12:04:03.495Z,90.12
2017-11-20T12:05:08.912Z,90.21
2017-11-20T12:06:14.693Z,90.16
2017-11-20T12:07:20.519Z,89.94
2017-11-20T12:08:25.714Z,89.68
2017-11-20T12:09:31.096Z,89.00
2017-11-20T12:10:36.527Z,88.75
2017-11-20T12:11:41.922Z,88.22
2017-11-20T12:12:47.356Z,88.34
2017-11-20T12:13:52.800Z,88.68
2017-11-20T12:14:58.217Z,87.98
2017-11-20T12:16:08.477Z,87.65
2017-11-20T12:17:13.882Z,87.17
2017-11-20T12:18:19.552Z,86.61
2017-11-20T12:19:25.065Z,86.78
2017-11-20T12:20:30.423Z,86.63
2017-11-20T12:21:35.851Z,86.23
2017-11-20T12:22:41.052Z,85.93
2017-11-20T12:23:46.284Z,85.03
2017-11-20T12:24:51.482Z,84.81
2017-11-20T12:25:56.714Z,84.30
2017-11-20T12:27:02.108Z,84.56
2017-11-20T12:28:07.504Z,84.56
2017-11-20T12:29:13.050Z,84.90
2017-11-20T12:30:18.234Z,85.09
2017-11-20T12:31:23.748Z,84.95
2017-11-20T12:32:32.040Z,84.42
2017-11-20T12:33:37.482Z,84.28
2017-11-20T12:34:43.221Z,83.97
2017-11-20T12:35:48.597Z,84.41
2017-11-20T12:36:53.988Z,84.50
2017-11-20T12:37:59.563Z,84.83
2017-11-20T12:39:04.934Z,84.89
2017-11-20T12:40:10.686Z,83.83
2017-11-20T12:41:15.891Z,83.74
2017-11-20T12:42:21.286Z,84.19
2017-11-20T12:43:26.546Z,84.49
2017-11-20T12:44:32.625Z,84.53
2017-11-20T12:45:38.416Z,84.10
2017-11-20T12:46:43.828Z,83.85
2017-11-20T12:47:49.230Z,83.46
2017-11-20T12:48:54.960Z,83.50
2017-11-20T12:50:00.680Z,83.07
2017-11-20T12:51:06.146Z,83.22
2017-11-20T12:52:11.572Z,83.62
2017-11-20T12:53:17.281Z,83.71
2017-11-20T12:54:22.646Z,83.58
2017-11-20T12:55:28.048Z,82.92
2017-11-20T12:56:33.287Z,82.79
2017-11-20T12:57:38.502Z,83.04
2017-11-20T12:58:44.071Z,83.05
2017-11-20T12:59:49.441Z,83.15
2017-11-20T13:00:54.647Z,82.68
2017-11-20T13:02:00.598Z,82.45
2017-11-20T13:03:06.146Z,82.84
2017-11-20T13:04:11.370Z,82.88
2017-11-20T13:05:16.750Z,82.28
2017-11-20T13:06:22.146Z,82.52
2017-11-20T13:07:27.549Z,82.87
2017-11-20T13:08:33.060Z,83.04
2017-11-20T13:09:38.256Z,83.24
2017-11-20T13:10:43.664Z,83.28
2017-11-20T13:11:49.042Z,83.43
2017-11-20T13:12:54.254Z,83.41
2017-11-20T13:13:59.514Z,83.12
2017-11-20T13:15:10.524Z,83.33
2017-11-20T13:16:16.279Z,83.19
2017-11-20T13:17:21.495Z,83.61
2017-11-20T13:18:26.709Z,83.72
2017-11-20T13:19:32.140Z,84.14
2017-11-20T13:20:37.485Z,83.89
2017-11-20T13:21:42.672Z,84.34
2017-11-20T13:22:48.058Z,84.16
2017-11-20T13:23:53.283Z,83.85
2017-11-20T13:24:58.687Z,84.14
2017-11-20T13:26:03.933Z,83.89
2017-11-20T13:27:09.370Z,83.67
2017-11-20T13:28:14.557Z,83.25
2017-11-20T13:29:19.750Z,83.15
2017-11-20T13:30:25.030Z,83.04
2017-11-20T13:31:30.430Z,83.17
2017-11-20T13:32:35.636Z,82.83
2017-11-20T13:33:41.047Z,82.88
2017-11-20T13:34:46.280Z,83.34
2017-11-20T13:35:51.483Z,83.43
2017-11-20T13:36:56.715Z,83.64
2017-11-20T13:38:01.920Z,83.71
2017-11-20T13:39:07.137Z,84.04
2017-11-20T13:40:12.347Z,84.24
2017-11-20T13:41:17.543Z,84.70
2017-11-20T13:42:22.892Z,84.26
2017-11-20T13:43:28.114Z,84.74
2017-11-20T13:44:33.511Z,84.85
2017-11-20T13:45:43.860Z,85.11
2017-11-20T13:46:49.040Z,85.18
2017-11-20T13:47:54.484Z,85.22
2017-11-20T13:49:00.394Z,85.30
2017-11-20T13:50:05.648Z,85.77
2017-11-20T13:51:10.853Z,86.10
2017-11-20T13:52:16.315Z,86.12
2017-11-20T13:53:21.506Z,85.90
2017-11-20T13:54:26.719Z,85.81
2017-11-20T13:55:32.217Z,86.17
2017-11-20T13:56:37.622Z,86.08
2017-11-20T13:57:43.025Z,86.13
2017-11-20T13:58:48.442Z,85.71
2017-11-20T13:59:54.251Z,85.59
2017-11-20T14:00:59.673Z,85.82
2017-11-20T14:02:04.978Z,86.20
2017-11-20T14:03:14.204Z,86.40
2017-11-20T14:04:19.670Z,85.92
2017-11-20T14:05:24.882Z,85.96
2017-11-20T14:06:30.254Z,86.45
2017-11-20T14:07:35.694Z,86.65
2017-11-20T14:08:40.902Z,86.63
2017-11-20T14:09:46.052Z,86.99
2017-11-20T14:10:51.453Z,87.14
2017-11-20T14:11:56.887Z,86.60
2017-11-20T14:13:02.470Z,86.20
2017-11-20T14:14:07.636Z,85.69
2017-11-20T14:15:18.048Z,85.94
2017-11-20T14:16:23.707Z,85.80
2017-11-20T14:17:28.909Z,86.26
2017-11-20T14:18:34.200Z,86.64